Time;durP1;ratioP1;P1;durP2;ratioP2;P2;SDS_P1;SDS_P2;PMS_P1;PMS_P2;Temp;Humidity;BMP_temperature;BMP_pressure;BME280_temperature;BME280_humidity;BME280_pressure;Samples;Min_cycle;Max_cycle;Signal;HPM_P1;HPM_P2
2020/06/27 00:01:14;;;;;;;3.09;2.77;;;;;;;21.38;64.72;100022.95;;;;-56
2020/06/27 00:04:14;;;;;;;2.99;2.69;;;;;;;21.37;64.72;100028.41;;;;-57
2020/06/27 00:07:15;;;;;;;2.81;2.61;;;;;;;21.37;64.75;100037.63;;;;-56
2020/06/27 00:10:14;;;;;;;2.92;2.72;;;;;;;21.36;64.70;100030.55;;;;-56
2020/06/27 00:13:15;;;;;;;3.32;2.83;;;;;;;21.36;64.79;100039.59;;;;-56
2020/06/27 00:16:15;;;;;;;2.85;2.60;;;;;;;21.35;64.72;100043.02;;;;-55
2020/06/27 00:19:14;;;;;;;2.61;2.41;;;;;;;21.36;64.75;100044.41;;;;-56
2020/06/27 00:22:14;;;;;;;2.79;2.59;;;;;;;21.35;64.74;100047.83;;;;-57
2020/06/27 00:25:15;;;;;;;2.79;2.59;;;;;;;21.35;64.72;100046.94;;;;-56
2020/06/27 00:28:15;;;;;;;2.76;2.56;;;;;;;21.34;64.74;100043.44;;;;-57
2020/06/27 00:31:15;;;;;;;2.67;2.47;;;;;;;21.34;64.74;100044.09;;;;-56
2020/06/27 00:34:15;;;;;;;2.79;2.59;;;;;;;21.33;64.78;100033.36;;;;-55
2020/06/27 00:37:15;;;;;;;2.84;2.56;;;;;;;21.33;64.74;100033.36;;;;-55
2020/06/27 00:40:14;;;;;;;2.69;2.49;;;;;;;21.33;64.75;100036.02;;;;-57
2020/06/27 00:43:14;;;;;;;3.05;2.73;;;;;;;21.33;64.68;100039.61;;;;-56
2020/06/27 00:46:14;;;;;;;2.99;2.53;;;;;;;21.33;64.70;100051.84;;;;-55
2020/06/27 00:49:15;;;;;;;3.20;2.64;;;;;;;21.33;64.72;100064.80;;;;-55
2020/06/27 00:52:15;;;;;;;2.70;2.50;;;;;;;21.33;64.71;100067.66;;;;-56
2020/06/27 00:55:14;;;;;;;2.93;2.59;;;;;;;21.32;64.74;100065.95;;;;-56
2020/06/27 00:58:14;;;;;;;2.79;2.59;;;;;;;21.32;64.72;100071.00;;;;-55
2020/06/27 01:01:14;;;;;;;2.95;2.61;;;;;;;21.32;64.68;100073.78;;;;-55
2020/06/27 01:04:15;;;;;;;2.61;2.41;;;;;;;21.33;64.69;100079.39;;;;-56
2020/06/27 01:07:15;;;;;;;3.10;2.39;;;;;;;21.32;64.70;100077.28;;;;-55
2020/06/27 01:10:15;;;;;;;2.69;2.49;;;;;;;21.32;64.70;100076.72;;;;-56
2020/06/27 01:13:14;;;;;;;2.83;2.63;;;;;;;21.31;64.68;100073.62;;;;-55
2020/06/27 01:16:14;;;;;;;3.22;2.59;;;;;;;21.31;64.69;100076.06;;;;-57
2020/06/27 01:19:15;;;;;;;2.75;2.55;;;;;;;21.31;64.69;100071.01;;;;-56
2020/06/27 01:22:15;;;;;;;2.55;2.35;;;;;;;21.30;64.69;100069.31;;;;-57
2020/06/27 01:25:15;;;;;;;2.70;2.50;;;;;;;21.30;64.67;100069.55;;;;-57
2020/06/27 01:28:15;;;;;;;2.80;2.60;;;;;;;21.29;64.66;100067.20;;;;-55
2020/06/27 01:31:14;;;;;;;2.85;2.63;;;;;;;21.29;64.64;100068.84;;;;-55
2020/06/27 01:34:14;;;;;;;2.61;2.41;;;;;;;21.30;64.66;100059.78;;;;-56
2020/06/27 01:37:14;;;;;;;2.93;2.45;;;;;;;21.29;64.66;100056.59;;;;-56
2020/06/27 01:40:14;;;;;;;2.53;2.33;;;;;;;21.29;64.66;100057.66;;;;-57
2020/06/27 01:43:15;;;;;;;2.51;2.31;;;;;;;21.27;64.65;100055.65;;;;-55
2020/06/27 01:46:15;;;;;;;2.61;2.39;;;;;;;21.28;64.64;100046.27;;;;-55
2020/06/27 01:49:14;;;;;;;2.58;2.38;;;;;;;21.28;64.63;100042.76;;;;-55
2020/06/27 01:52:14;;;;;;;2.71;2.51;;;;;;;21.27;64.65;100038.19;;;;-56
2020/06/27 01:55:14;;;;;;;2.54;2.34;;;;;;;21.27;64.62;100029.22;;;;-57
2020/06/27 01:58:14;;;;;;;2.59;2.37;;;;;;;21.26;64.65;100021.50;;;;-56
2020/06/27 02:01:15;;;;;;;2.52;2.32;;;;;;;21.26;64.59;100021.83;;;;-56
2020/06/27 02:04:15;;;;;;;3.18;2.39;;;;;;;21.26;64.67;100017.44;;;;-55
2020/06/27 02:07:15;;;;;;;2.56;2.36;;;;;;;21.26;64.63;100018.23;;;;-56
2020/06/27 02:10:14;;;;;;;2.70;2.50;;;;;;;21.25;64.67;100015.22;;;;-55
2020/06/27 02:13:14;;;;;;;2.69;2.49;;;;;;;21.25;64.67;100022.73;;;;-56
2020/06/27 02:16:15;;;;;;;2.38;2.25;;;;;;;21.25;64.64;100019.45;;;;-56
2020/06/27 02:19:14;;;;;;;2.82;2.62;;;;;;;21.25;64.68;100016.84;;;;-56
2020/06/27 02:22:15;;;;;;;2.50;2.30;;;;;;;21.25;64.66;100016.45;;;;-56
2020/06/27 02:25:15;;;;;;;2.61;2.40;;;;;;;21.25;64.66;100018.48;;;;-57
2020/06/27 02:28:14;;;;;;;2.59;2.39;;;;;;;21.24;64.67;100015.89;;;;-56
2020/06/27 02:31:14;;;;;;;2.67;2.47;;;;;;;21.24;64.65;100013.78;;;;-56
2020/06/27 02:34:14;;;;;;;2.59;2.39;;;;;;;21.24;64.65;100017.04;;;;-56
2020/06/27 02:37:14;;;;;;;2.63;2.43;;;;;;;21.24;64.67;100017.53;;;;-57
2020/06/27 02:40:14;;;;;;;2.54;2.34;;;;;;;21.24;64.63;100015.82;;;;-55
2020/06/27 02:43:15;;;;;;;2.79;2.59;;;;;;;21.23;64.65;100009.31;;;;-56
2020/06/27 02:46:15;;;;;;;2.63;2.41;;;;;;;21.23;64.63;100016.22;;;;-55
2020/06/27 02:49:14;;;;;;;2.45;2.25;;;;;;;21.23;64.65;100015.08;;;;-56
2020/06/27 02:52:14;;;;;;;2.57;2.37;;;;;;;21.22;64.65;100012.80;;;;-56
2020/06/27 02:55:14;;;;;;;2.60;2.40;;;;;;;21.22;64.62;100011.59;;;;-56
2020/06/27 02:58:15;;;;;;;2.60;2.40;;;;;;;21.22;64.68;100017.53;;;;-54
2020/06/27 03:01:14;;;;;;;2.60;2.40;;;;;;;21.22;64.64;100013.30;;;;-55
2020/06/27 03:04:15;;;;;;;2.41;2.21;;;;;;;21.22;64.66;100012.66;;;;-57
2020/06/27 03:07:14;;;;;;;2.63;2.43;;;;;;;21.21;64.68;100008.27;;;;-57
2020/06/27 03:10:14;;;;;;;2.51;2.31;;;;;;;21.21;64.71;100015.84;;;;-57
2020/06/27 03:13:14;;;;;;;2.51;2.31;;;;;;;21.21;64.68;100020.83;;;;-56
2020/06/27 03:16:14;;;;;;;2.67;2.47;;;;;;;21.21;64.66;100018.87;;;;-55
2020/06/27 03:19:14;;;;;;;2.58;2.38;;;;;;;21.20;64.67;100016.31;;;;-56
2020/06/27 03:22:32;;;;;;;2.52;2.32;;;;;;;21.20;64.67;100013.48;;;;-56
2020/06/27 03:25:14;;;;;;;2.61;2.41;;;;;;;21.19;64.67;100018.95;;;;-57
2020/06/27 03:28:14;;;;;;;2.44;2.26;;;;;;;21.20;64.66;100024.48;;;;-57
2020/06/27 03:31:14;;;;;;;2.72;2.52;;;;;;;21.19;64.69;100025.64;;;;-56
2020/06/27 03:34:15;;;;;;;2.64;2.44;;;;;;;21.19;64.66;100026.38;;;;-56
2020/06/27 03:37:15;;;;;;;3.09;2.32;;;;;;;21.19;64.72;100024.83;;;;-57
2020/06/27 03:40:15;;;;;;;2.45;2.25;;;;;;;21.19;64.68;100026.05;;;;-56
2020/06/27 03:43:14;;;;;;;2.49;2.29;;;;;;;21.19;64.64;100028.66;;;;-56
2020/06/27 03:46:14;;;;;;;2.68;2.48;;;;;;;21.19;64.67;100037.54;;;;-56
2020/06/27 03:49:14;;;;;;;2.63;2.42;;;;;;;21.18;64.69;100039.16;;;;-55
2020/06/27 03:52:14;;;;;;;2.92;2.53;;;;;;;21.18;64.70;100035.91;;;;-55
2020/06/27 03:55:15;;;;;;;2.55;2.35;;;;;;;21.18;64.70;100032.14;;;;-57
2020/06/27 03:58:14;;;;;;;2.45;2.25;;;;;;;21.18;64.70;100031.75;;;;-56
2020/06/27 04:01:14;;;;;;;3.12;2.55;;;;;;;21.18;64.68;100034.27;;;;-57
2020/06/27 04:04:14;;;;;;;2.37;2.15;;;;;;;21.18;64.74;100035.17;;;;-55
2020/06/27 04:07:14;;;;;;;2.26;2.10;;;;;;;21.17;64.71;100033.31;;;;-57
2020/06/27 04:10:14;;;;;;;2.51;2.31;;;;;;;21.17;64.73;100040.66;;;;-56
2020/06/27 04:13:14;;;;;;;2.33;2.16;;;;;;;21.16;64.71;100045.20;;;;-56
2020/06/27 04:16:14;;;;;;;2.59;2.39;;;;;;;21.17;64.69;100049.61;;;;-56
2020/06/27 04:19:15;;;;;;;2.69;2.49;;;;;;;21.16;64.70;100049.27;;;;-55
2020/06/27 04:22:14;;;;;;;2.42;2.23;;;;;;;21.16;64.71;100053.18;;;;-56
2020/06/27 04:25:14;;;;;;;2.44;2.24;;;;;;;21.17;64.76;100051.33;;;;-57
2020/06/27 04:28:15;;;;;;;2.41;2.21;;;;;;;21.16;64.71;100039.66;;;;-56
2020/06/27 04:31:14;;;;;;;2.49;2.29;;;;;;;21.16;64.67;100039.92;;;;-56
2020/06/27 04:34:14;;;;;;;2.51;2.30;;;;;;;21.16;64.68;100041.20;;;;-56
2020/06/27 04:37:15;;;;;;;2.45;2.25;;;;;;;21.16;64.65;100042.36;;;;-56
2020/06/27 04:40:14;;;;;;;2.59;2.39;;;;;;;21.16;64.65;100035.92;;;;-56
2020/06/27 04:43:14;;;;;;;2.41;2.21;;;;;;;21.16;64.72;100033.47;;;;-57
2020/06/27 04:46:14;;;;;;;2.54;2.34;;;;;;;21.16;64.69;100029.55;;;;-56
2020/06/27 04:49:14;;;;;;;2.33;2.17;;;;;;;21.15;64.67;100029.98;;;;-57
2020/06/27 04:52:14;;;;;;;2.60;2.40;;;;;;;21.15;64.67;100030.55;;;;-57
2020/06/27 04:55:15;;;;;;;2.42;2.22;;;;;;;21.15;64.70;100028.77;;;;-56
2020/06/27 04:58:14;;;;;;;2.41;2.23;;;;;;;21.15;64.69;100036.19;;;;-55
2020/06/27 05:01:14;;;;;;;2.49;2.29;;;;;;;21.15;64.68;100037.90;;;;-56
2020/06/27 05:04:14;;;;;;;2.65;2.45;;;;;;;21.15;64.73;100036.99;;;;-57
2020/06/27 05:07:14;;;;;;;2.44;2.24;;;;;;;21.15;64.69;100029.09;;;;-55
2020/06/27 05:10:14;;;;;;;2.47;2.27;;;;;;;21.15;64.76;100027.14;;;;-56
2020/06/27 05:13:14;;;;;;;2.41;2.22;;;;;;;21.15;64.70;100038.06;;;;-56
2020/06/27 05:16:14;;;;;;;2.59;2.39;;;;;;;21.15;64.73;100039.29;;;;-56
2020/06/27 05:19:14;;;;;;;2.54;2.34;;;;;;;21.14;64.67;100039.99;;;;-56
2020/06/27 05:22:14;;;;;;;2.41;2.21;;;;;;;21.15;64.73;100050.94;;;;-55
2020/06/27 05:25:14;;;;;;;2.50;2.30;;;;;;;21.14;64.72;100052.97;;;;-56
2020/06/27 05:28:15;;;;;;;2.45;2.25;;;;;;;21.14;64.71;100065.74;;;;-55
2020/06/27 05:31:15;;;;;;;2.36;2.10;;;;;;;21.13;64.73;100069.77;;;;-55
2020/06/27 05:34:14;;;;;;;2.39;2.23;;;;;;;21.13;64.73;100073.52;;;;-56
2020/06/27 05:37:15;;;;;;;2.63;2.43;;;;;;;21.14;64.74;100082.45;;;;-55
2020/06/27 05:40:14;;;;;;;2.35;2.15;;;;;;;21.13;64.71;100071.30;;;;-57
2020/06/27 05:43:14;;;;;;;2.53;2.33;;;;;;;21.14;64.74;100073.66;;;;-56
2020/06/27 05:46:14;;;;;;;2.49;2.29;;;;;;;21.14;64.72;100083.52;;;;-57
2020/06/27 05:49:14;;;;;;;2.50;2.30;;;;;;;21.14;64.69;100085.23;;;;-56
2020/06/27 05:52:15;;;;;;;2.56;2.25;;;;;;;21.14;64.66;100089.96;;;;-55
2020/06/27 05:55:14;;;;;;;2.40;2.21;;;;;;;21.14;64.70;100088.33;;;;-56
2020/06/27 05:58:14;;;;;;;2.65;2.43;;;;;;;21.13;64.66;100085.25;;;;-56
2020/06/27 06:01:15;;;;;;;2.56;2.36;;;;;;;21.13;64.71;100088.34;;;;-55
2020/06/27 06:04:14;;;;;;;2.37;2.21;;;;;;;21.13;64.71;100086.62;;;;-55
2020/06/27 06:07:14;;;;;;;2.43;2.23;;;;;;;21.13;64.69;100087.04;;;;-56
2020/06/27 06:10:15;;;;;;;2.43;2.23;;;;;;;21.13;64.70;100091.94;;;;-56
2020/06/27 06:13:14;;;;;;;2.50;2.30;;;;;;;21.13;64.67;100093.80;;;;-56
2020/06/27 06:16:14;;;;;;;2.46;2.26;;;;;;;21.13;64.72;100091.69;;;;-56
2020/06/27 06:19:14;;;;;;;2.49;2.29;;;;;;;21.12;64.68;100080.42;;;;-55
2020/06/27 06:22:14;;;;;;;2.37;2.17;;;;;;;21.12;64.72;100077.73;;;;-56
2020/06/27 06:25:15;;;;;;;2.65;2.45;;;;;;;21.12;64.72;100073.74;;;;-56
2020/06/27 06:28:15;;;;;;;2.50;2.24;;;;;;;21.12;64.70;100076.52;;;;-56
2020/06/27 06:31:14;;;;;;;2.39;2.20;;;;;;;21.12;64.67;100089.15;;;;-56
2020/06/27 06:34:14;;;;;;;2.30;2.10;;;;;;;21.12;64.66;100074.73;;;;-56
2020/06/27 06:37:14;;;;;;;2.35;2.15;;;;;;;21.12;64.72;100072.53;;;;-56
2020/06/27 06:40:14;;;;;;;2.36;2.24;;;;;;;21.13;64.71;100049.24;;;;-56
2020/06/27 06:43:15;;;;;;;2.55;2.35;;;;;;;21.12;64.71;100041.00;;;;-55
2020/06/27 06:46:14;;;;;;;2.61;2.41;;;;;;;21.12;64.71;100043.45;;;;-56
2020/06/27 06:49:14;;;;;;;2.67;2.46;;;;;;;21.11;64.67;100049.81;;;;-56
2020/06/27 06:52:14;;;;;;;2.71;2.51;;;;;;;21.11;64.68;100062.20;;;;-56
2020/06/27 06:55:14;;;;;;;2.63;2.43;;;;;;;21.11;64.63;100068.48;;;;-55
2020/06/27 06:58:14;;;;;;;3.13;2.37;;;;;;;21.11;64.65;100070.67;;;;-55
2020/06/27 07:01:14;;;;;;;2.51;2.31;;;;;;;21.11;64.69;100070.27;;;;-57
2020/06/27 07:04:16;;;;;;;2.49;2.29;;;;;;;21.11;64.75;100066.03;;;;-45
2020/06/27 07:07:14;;;;;;;2.92;2.72;;;;;;;21.13;65.60;100074.56;;;;-49
2020/06/27 07:10:14;;;;;;;2.91;2.43;;;;;;;21.16;65.55;100087.50;;;;-54
2020/06/27 07:13:15;;;;;;;3.07;2.65;;;;;;;21.17;65.72;100085.78;;;;-56
2020/06/27 07:16:14;;;;;;;2.82;2.62;;;;;;;21.20;65.79;100083.40;;;;-46
2020/06/27 07:19:14;;;;;;;3.02;2.62;;;;;;;21.21;65.85;100077.87;;;;-50
2020/06/27 07:22:14;;;;;;;4.64;2.81;;;;;;;21.20;65.55;100074.11;;;;-51
2020/06/27 07:25:14;;;;;;;3.45;2.67;;;;;;;21.20;65.49;100076.62;;;;-51
2020/06/27 07:28:14;;;;;;;4.03;2.59;;;;;;;21.20;65.40;100075.41;;;;-51
2020/06/27 07:31:14;;;;;;;2.66;2.45;;;;;;;21.20;65.36;100073.63;;;;-51
2020/06/27 07:34:14;;;;;;;2.61;2.41;;;;;;;21.19;65.27;100070.78;;;;-50
2020/06/27 07:37:15;;;;;;;2.80;2.60;;;;;;;21.19;65.20;100066.06;;;;-51
2020/06/27 07:40:15;;;;;;;2.69;2.49;;;;;;;21.19;65.26;100065.98;;;;-51
2020/06/27 07:43:14;;;;;;;2.81;2.43;;;;;;;21.18;65.25;100071.02;;;;-50
2020/06/27 07:46:15;;;;;;;2.85;2.60;;;;;;;21.18;65.21;100071.84;;;;-52
2020/06/27 07:49:15;;;;;;;7.61;2.95;;;;;;;21.19;65.80;100066.79;;;;-46
2020/06/27 07:52:14;;;;;;;4.24;2.73;;;;;;;21.20;65.88;100062.28;;;;-49
2020/06/27 07:55:14;;;;;;;3.97;2.64;;;;;;;21.22;66.05;100062.29;;;;-47
2020/06/27 07:58:14;;;;;;;5.70;2.90;;;;;;;21.23;66.03;100057.95;;;;-46
2020/06/27 08:01:15;;;;;;;3.34;3.04;;;;;;;21.25;66.15;100068.38;;;;-51
2020/06/27 08:04:14;;;;;;;4.18;2.86;;;;;;;21.26;66.10;100067.21;;;;-46
2020/06/27 08:07:14;;;;;;;6.25;2.91;;;;;;;21.29;66.09;100074.21;;;;-52
2020/06/27 08:10:14;;;;;;;3.37;2.66;;;;;;;21.30;66.12;100076.41;;;;-47
2020/06/27 08:13:14;;;;;;;3.90;2.62;;;;;;;21.31;66.17;100071.90;;;;-55
2020/06/27 08:16:14;;;;;;;3.01;2.79;;;;;;;21.33;66.20;100075.31;;;;-52
2020/06/27 08:19:15;;;;;;;3.67;2.73;;;;;;;21.34;66.19;100077.03;;;;-51
2020/06/27 08:22:14;;;;;;;3.16;2.73;;;;;;;21.35;66.15;100078.17;;;;-53
2020/06/27 08:25:14;;;;;;;4.09;2.86;;;;;;;21.36;66.10;100077.82;;;;-54
2020/06/27 08:28:14;;;;;;;3.17;2.89;;;;;;;21.37;66.23;100078.05;;;;-46
2020/06/27 08:31:14;;;;;;;5.99;2.80;;;;;;;21.39;65.97;100079.59;;;;-46
2020/06/27 08:34:14;;;;;;;4.01;2.76;;;;;;;21.39;65.88;100077.05;;;;-46
2020/06/27 08:37:15;;;;;;;3.81;2.65;;;;;;;21.39;65.77;100086.51;;;;-46
2020/06/27 08:40:14;;;;;;;4.21;2.83;;;;;;;21.40;66.38;100087.91;;;;-49
2020/06/27 08:43:14;;;;;;;8.65;3.08;;;;;;;21.42;66.36;100083.34;;;;-58
2020/06/27 08:46:15;;;;;;;6.41;3.34;;;;;;;21.43;66.55;100081.55;;;;-49
2020/06/27 08:49:14;;;;;;;4.90;2.98;;;;;;;21.43;66.43;100080.73;;;;-51
2020/06/27 08:52:14;;;;;;;5.27;3.03;;;;;;;21.44;66.52;100083.09;;;;-47
2020/06/27 08:55:15;;;;;;;6.73;3.18;;;;;;;21.45;66.62;100091.39;;;;-47
2020/06/27 08:58:14;;;;;;;7.14;3.25;;;;;;;21.46;66.45;100087.66;;;;-51
2020/06/27 09:01:14;;;;;;;7.88;3.20;;;;;;;21.48;66.39;100089.98;;;;-47
2020/06/27 09:04:14;;;;;;;8.88;3.29;;;;;;;21.48;66.21;100091.28;;;;-46
2020/06/27 09:07:14;;;;;;;6.23;3.17;;;;;;;21.48;66.13;100091.14;;;;-46
2020/06/27 09:10:14;;;;;;;11.21;3.49;;;;;;;21.49;66.44;100093.00;;;;-50
2020/06/27 09:13:15;;;;;;;5.57;2.93;;;;;;;21.49;66.37;100093.48;;;;-52
2020/06/27 09:16:14;;;;;;;6.37;3.07;;;;;;;21.49;66.40;100095.53;;;;-58
2020/06/27 09:19:14;;;;;;;4.13;2.92;;;;;;;21.50;66.32;100103.17;;;;-51
2020/06/27 09:22:14;;;;;;;5.31;2.91;;;;;;;21.51;66.38;100100.33;;;;-48
2020/06/27 09:25:14;;;;;;;5.99;3.08;;;;;;;21.51;66.40;100102.36;;;;-54
2020/06/27 09:28:14;;;;;;;6.03;3.45;;;;;;;21.52;66.32;100100.41;;;;-50
2020/06/27 09:31:14;;;;;;;4.29;3.23;;;;;;;21.53;66.34;100104.05;;;;-49
2020/06/27 09:34:14;;;;;;;6.02;3.40;;;;;;;21.53;66.37;100102.34;;;;-48
2020/06/27 09:37:14;;;;;;;5.80;3.36;;;;;;;21.54;66.34;100103.30;;;;-51
2020/06/27 09:40:14;;;;;;;5.33;3.05;;;;;;;21.54;66.36;100101.04;;;;-52
2020/06/27 09:43:14;;;;;;;5.96;3.36;;;;;;;21.55;66.07;100099.81;;;;-51
2020/06/27 09:46:14;;;;;;;4.34;2.97;;;;;;;21.55;66.12;100098.58;;;;-50
2020/06/27 09:49:14;;;;;;;4.25;3.27;;;;;;;21.54;66.22;100096.96;;;;-52
2020/06/27 09:52:14;;;;;;;5.22;3.20;;;;;;;21.54;66.20;100092.55;;;;-51
2020/06/27 09:55:14;;;;;;;6.33;3.43;;;;;;;21.54;65.96;100095.25;;;;-51
2020/06/27 09:58:14;;;;;;;5.15;3.33;;;;;;;21.54;65.95;100092.21;;;;-50
2020/06/27 10:01:14;;;;;;;9.92;3.58;;;;;;;21.55;66.11;100091.89;;;;-55
2020/06/27 10:04:15;;;;;;;5.11;3.25;;;;;;;21.56;66.01;100090.08;;;;-45
2020/06/27 10:07:14;;;;;;;4.54;2.96;;;;;;;21.56;66.03;100096.44;;;;-52
2020/06/27 10:10:14;;;;;;;4.08;2.99;;;;;;;21.57;66.07;100094.58;;;;-49
2020/06/27 10:13:14;;;;;;;4.97;3.09;;;;;;;21.57;66.11;100093.75;;;;-48
2020/06/27 10:16:14;;;;;;;5.37;3.35;;;;;;;21.59;66.10;100089.83;;;;-52
2020/06/27 10:19:14;;;;;;;6.65;3.33;;;;;;;21.60;66.31;100086.89;;;;-50
2020/06/27 10:22:14;;;;;;;5.64;3.43;;;;;;;21.63;66.26;100096.72;;;;-49
2020/06/27 10:25:14;;;;;;;4.79;3.14;;;;;;;21.65;66.26;100104.78;;;;-48
2020/06/27 10:28:15;;;;;;;4.04;3.17;;;;;;;21.65;66.37;100099.56;;;;-50
2020/06/27 10:31:15;;;;;;;7.20;3.21;;;;;;;21.67;66.52;100091.64;;;;-46
2020/06/27 10:34:14;;;;;;;6.73;3.47;;;;;;;21.67;66.45;100095.88;;;;-47
2020/06/27 10:37:14;;;;;;;5.78;3.31;;;;;;;21.67;66.44;100095.55;;;;-51
2020/06/27 10:40:14;;;;;;;6.42;3.40;;;;;;;21.68;66.48;100093.47;;;;-49
2020/06/27 10:43:14;;;;;;;9.01;3.51;;;;;;;21.69;66.54;100094.80;;;;-48
2020/06/27 10:46:14;;;;;;;8.73;3.49;;;;;;;21.69;66.37;100086.55;;;;-49
2020/06/27 10:49:14;;;;;;;7.50;3.49;;;;;;;21.68;66.46;100073.25;;;;-49
2020/06/27 10:52:15;;;;;;;7.47;3.53;;;;;;;21.68;66.42;100072.28;;;;-49
2020/06/27 10:55:15;;;;;;;7.18;3.42;;;;;;;21.67;66.37;100062.67;;;;-48
2020/06/27 10:58:14;;;;;;;4.80;3.26;;;;;;;21.67;66.34;100068.95;;;;-49
2020/06/27 11:01:14;;;;;;;4.41;3.27;;;;;;;21.66;66.28;100074.17;;;;-50
2020/06/27 11:04:14;;;;;;;6.47;3.28;;;;;;;21.66;66.21;100079.14;;;;-49
2020/06/27 11:07:14;;;;;;;6.79;3.33;;;;;;;21.66;66.23;100081.59;;;;-49
2020/06/27 11:10:14;;;;;;;4.73;3.44;;;;;;;21.65;66.16;100081.94;;;;-49
2020/06/27 11:13:14;;;;;;;5.00;3.43;;;;;;;21.66;66.15;100085.02;;;;-51
2020/06/27 11:16:14;;;;;;;5.32;3.50;;;;;;;21.65;66.11;100080.80;;;;-49
2020/06/27 11:19:14;;;;;;;6.20;3.34;;;;;;;21.65;66.14;100088.71;;;;-49
2020/06/27 11:22:15;;;;;;;5.23;3.22;;;;;;;21.65;66.09;100089.20;;;;-48
2020/06/27 11:25:14;;;;;;;7.73;3.55;;;;;;;21.65;66.23;100085.28;;;;-51
2020/06/27 11:28:14;;;;;;;3.79;3.10;;;;;;;21.67;66.16;100076.70;;;;-50
2020/06/27 11:31:14;;;;;;;6.51;3.51;;;;;;;21.67;65.95;100066.91;;;;-50
2020/06/27 11:34:14;;;;;;;6.03;3.23;;;;;;;21.68;66.08;100060.86;;;;-51
2020/06/27 11:37:15;;;;;;;5.66;3.31;;;;;;;21.68;66.07;100059.48;;;;-52
2020/06/27 11:40:15;;;;;;;6.13;3.31;;;;;;;21.68;66.01;100058.25;;;;-51
2020/06/27 11:43:15;;;;;;;4.61;3.39;;;;;;;21.67;65.93;100059.83;;;;-52
2020/06/27 11:46:15;;;;;;;3.90;3.21;;;;;;;21.67;65.78;100062.44;;;;-50
2020/06/27 11:49:14;;;;;;;5.21;3.27;;;;;;;21.67;65.79;100055.91;;;;-51
2020/06/27 11:52:14;;;;;;;8.30;3.21;;;;;;;21.67;65.77;100058.59;;;;-51
2020/06/27 11:55:15;;;;;;;4.65;3.04;;;;;;;21.67;65.72;100060.73;;;;-51
2020/06/27 11:58:15;;;;;;;5.89;3.25;;;;;;;21.67;65.70;100053.80;;;;-52
2020/06/27 12:01:15;;;;;;;3.98;3.09;;;;;;;21.66;65.64;100057.12;;;;-51
2020/06/27 12:04:15;;;;;;;3.93;3.12;;;;;;;21.66;65.61;100058.09;;;;-51
2020/06/27 12:07:14;;;;;;;6.52;3.53;;;;;;;21.65;65.56;100060.24;;;;-51
2020/06/27 12:10:14;;;;;;;6.67;3.19;;;;;;;21.66;65.57;100061.13;;;;-51
2020/06/27 12:13:14;;;;;;;4.31;3.18;;;;;;;21.65;65.58;100066.62;;;;-51
2020/06/27 12:16:15;;;;;;;4.45;3.05;;;;;;;21.65;65.55;100064.91;;;;-51
2020/06/27 12:19:14;;;;;;;4.02;3.13;;;;;;;21.65;65.51;100058.71;;;;-51
2020/06/27 12:22:14;;;;;;;5.39;3.29;;;;;;;21.64;65.50;100056.33;;;;-51
2020/06/27 12:25:14;;;;;;;5.69;3.22;;;;;;;21.63;65.49;100057.33;;;;-51
2020/06/27 12:28:14;;;;;;;6.59;3.13;;;;;;;21.64;65.59;100054.95;;;;-45
2020/06/27 12:31:14;;;;;;;5.70;3.22;;;;;;;21.66;65.84;100055.17;;;;-49
2020/06/27 12:34:14;;;;;;;4.79;3.22;;;;;;;21.66;65.95;100055.17;;;;-54
2020/06/27 12:37:15;;;;;;;5.34;2.97;;;;;;;21.67;66.15;100059.67;;;;-49
2020/06/27 12:40:15;;;;;;;4.87;2.98;;;;;;;21.68;66.21;100054.59;;;;-47
2020/06/27 12:43:14;;;;;;;5.68;2.97;;;;;;;21.69;66.20;100046.17;;;;-47
2020/06/27 12:46:14;;;;;;;5.45;3.09;;;;;;;21.69;66.29;100056.62;;;;-47
2020/06/27 12:49:15;;;;;;;4.01;3.17;;;;;;;21.72;66.37;100042.41;;;;-46
2020/06/27 12:52:14;;;;;;;5.40;3.11;;;;;;;21.72;66.48;100047.36;;;;-47
2020/06/27 12:55:14;;;;;;;6.22;3.09;;;;;;;21.73;66.52;100036.44;;;;-49
2020/06/27 12:58:14;;;;;;;5.09;3.16;;;;;;;21.74;66.60;100029.74;;;;-52
2020/06/27 13:01:14;;;;;;;5.18;3.05;;;;;;;21.75;66.57;100023.77;;;;-54
2020/06/27 13:04:14;;;;;;;5.14;3.13;;;;;;;21.76;66.53;100028.41;;;;-55
2020/06/27 13:07:14;;;;;;;5.21;3.00;;;;;;;21.77;66.46;100031.52;;;;-51
2020/06/27 13:10:14;;;;;;;4.57;3.04;;;;;;;21.77;66.62;100033.95;;;;-53
2020/06/27 13:13:15;;;;;;;12.45;3.55;;;;;;;21.80;66.49;100024.88;;;;-45
2020/06/27 13:16:14;;;;;;;12.43;3.29;;;;;;;21.82;66.61;100023.38;;;;-50
2020/06/27 13:19:15;;;;;;;15.15;3.61;;;;;;;21.83;67.68;100020.60;;;;-58
2020/06/27 13:22:15;;;;;;;7.81;3.49;;;;;;;21.84;66.50;100017.91;;;;-53
2020/06/27 13:25:14;;;;;;;8.07;3.02;;;;;;;21.85;66.58;100019.51;;;;-51
2020/06/27 13:28:14;;;;;;;5.88;3.13;;;;;;;21.84;66.41;100016.02;;;;-45
2020/06/27 13:31:14;;;;;;;8.29;3.09;;;;;;;21.85;66.52;100016.57;;;;-49
2020/06/27 13:34:15;;;;;;;7.29;3.42;;;;;;;21.85;66.42;100007.62;;;;-48
2020/06/27 13:37:14;;;;;;;5.01;3.27;;;;;;;21.86;66.46;100000.73;;;;-51
2020/06/27 13:40:14;;;;;;;8.30;3.32;;;;;;;21.86;66.49;100003.03;;;;-52
2020/06/27 13:43:14;;;;;;;8.25;3.01;;;;;;;21.87;66.39;100005.31;;;;-56
2020/06/27 13:46:14;;;;;;;5.74;3.13;;;;;;;21.87;66.24;100001.39;;;;-57
2020/06/27 13:49:14;;;;;;;6.47;3.45;;;;;;;21.88;66.39;100006.02;;;;-49
2020/06/27 13:52:15;;;;;;;4.29;2.95;;;;;;;21.88;66.34;100003.91;;;;-57
2020/06/27 13:55:14;;;;;;;7.12;3.46;;;;;;;21.88;66.32;99995.33;;;;-51
2020/06/27 13:58:14;;;;;;;4.97;2.99;;;;;;;21.89;66.33;99989.36;;;;-51
2020/06/27 14:01:14;;;;;;;5.76;3.29;;;;;;;21.89;66.38;99982.99;;;;-50
2020/06/27 14:04:14;;;;;;;5.01;3.02;;;;;;;21.88;66.30;99981.86;;;;-50
2020/06/27 14:07:14;;;;;;;5.07;3.28;;;;;;;21.89;66.32;99972.16;;;;-50
2020/06/27 14:10:14;;;;;;;5.53;3.26;;;;;;;21.90;66.16;99971.83;;;;-47
2020/06/27 14:13:14;;;;;;;4.74;3.09;;;;;;;21.89;66.30;99967.08;;;;-51
2020/06/27 14:16:14;;;;;;;7.25;3.31;;;;;;;21.89;66.23;99969.80;;;;-50
2020/06/27 14:19:15;;;;;;;3.93;3.13;;;;;;;21.91;66.14;99968.61;;;;-54
2020/06/27 14:22:14;;;;;;;4.89;2.82;;;;;;;21.90;66.22;99964.72;;;;-59
2020/06/27 14:25:14;;;;;;;5.05;3.01;;;;;;;21.92;66.14;99968.22;;;;-47
2020/06/27 14:28:14;;;;;;;4.07;2.75;;;;;;;21.92;66.32;99963.56;;;;-50
2020/06/27 14:31:14;;;;;;;5.21;2.97;;;;;;;21.92;66.12;99961.52;;;;-62
2020/06/27 14:34:14;;;;;;;3.89;3.06;;;;;;;21.92;66.07;99956.45;;;;-60
2020/06/27 14:37:14;;;;;;;4.49;2.98;;;;;;;21.93;66.13;99956.84;;;;-50
2020/06/27 14:40:14;;;;;;;4.23;2.87;;;;;;;21.93;66.15;99945.42;;;;-52
2020/06/27 14:43:14;;;;;;;6.21;3.01;;;;;;;21.95;66.24;99947.28;;;;-51
2020/06/27 14:46:14;;;;;;;6.84;3.27;;;;;;;21.95;66.32;99947.27;;;;-39
2020/06/27 14:49:14;;;;;;;7.87;3.38;;;;;;;21.97;66.15;99950.93;;;;-56
2020/06/27 14:52:14;;;;;;;9.58;3.49;;;;;;;21.97;66.28;99944.31;;;;-49
2020/06/27 14:55:14;;;;;;;7.31;3.08;;;;;;;21.97;66.06;99944.48;;;;-50
2020/06/27 14:58:14;;;;;;;9.39;3.30;;;;;;;21.96;66.16;99943.68;;;;-50
2020/06/27 15:01:14;;;;;;;6.05;3.07;;;;;;;21.96;66.06;99940.50;;;;-49
2020/06/27 15:04:14;;;;;;;9.07;3.25;;;;;;;21.95;66.02;99934.06;;;;-49
2020/06/27 15:07:14;;;;;;;5.93;3.08;;;;;;;21.95;66.09;99930.96;;;;-49
2020/06/27 15:10:14;;;;;;;8.65;3.33;;;;;;;21.94;66.11;99935.80;;;;-49
2020/06/27 15:13:14;;;;;;;7.28;3.18;;;;;;;21.93;65.98;99934.07;;;;-49
2020/06/27 15:16:14;;;;;;;6.40;3.21;;;;;;;21.93;65.99;99936.53;;;;-49
2020/06/27 15:19:29;;;;;;;7.33;2.97;;;;;;;21.92;65.85;99937.36;;;;-49
2020/06/27 15:22:23;;;;;;;5.23;3.01;;;;;;;21.92;65.87;99936.48;;;;-49
2020/06/27 15:25:15;;;;;;;5.63;3.24;;;;;;;21.92;65.80;99939.17;;;;-49
2020/06/27 15:28:14;;;;;;;5.61;3.15;;;;;;;21.92;65.82;99940.41;;;;-49
2020/06/27 15:31:14;;;;;;;4.01;2.95;;;;;;;21.90;65.73;99948.16;;;;-49
2020/06/27 15:34:14;;;;;;;4.39;2.96;;;;;;;21.90;65.75;99942.61;;;;-49
2020/06/27 15:37:14;;;;;;;4.28;3.10;;;;;;;21.90;65.70;99935.03;;;;-49
2020/06/27 15:40:15;;;;;;;5.39;2.92;;;;;;;21.90;65.63;99935.36;;;;-49
2020/06/27 15:43:14;;;;;;;6.49;3.03;;;;;;;21.89;65.63;99933.06;;;;-49
2020/06/27 15:46:14;;;;;;;8.19;2.97;;;;;;;21.89;65.77;99928.83;;;;-54
2020/06/27 15:49:14;;;;;;;7.87;3.19;;;;;;;21.90;66.02;99930.30;;;;-49
2020/06/27 15:52:14;;;;;;;5.78;2.93;;;;;;;21.92;66.19;99928.24;;;;-48
2020/06/27 15:55:14;;;;;;;7.36;3.14;;;;;;;21.92;66.27;99931.67;;;;-50
2020/06/27 15:58:14;;;;;;;7.80;3.03;;;;;;;21.93;66.42;99936.94;;;;-48
2020/06/27 16:01:14;;;;;;;4.41;2.83;;;;;;;21.95;66.41;99941.08;;;;-49
2020/06/27 16:04:14;;;;;;;5.87;3.07;;;;;;;21.95;66.42;99942.95;;;;-50
2020/06/27 16:07:15;;;;;;;6.93;2.80;;;;;;;21.95;66.60;99942.22;;;;-51
2020/06/27 16:10:14;;;;;;;9.94;3.05;;;;;;;21.97;66.42;99938.75;;;;-52
2020/06/27 16:13:14;;;;;;;5.23;3.08;;;;;;;21.98;66.68;99942.61;;;;-46
2020/06/27 16:16:14;;;;;;;8.29;3.19;;;;;;;21.99;66.46;99939.05;;;;-53
2020/06/27 16:19:14;;;;;;;6.45;3.01;;;;;;;22.00;66.56;99943.31;;;;-58
2020/06/27 16:22:14;;;;;;;5.41;2.95;;;;;;;21.99;66.55;99944.44;;;;-59
2020/06/27 16:25:14;;;;;;;4.49;2.89;;;;;;;21.99;66.70;99945.09;;;;-58
2020/06/27 16:28:15;;;;;;;5.73;2.91;;;;;;;22.00;66.64;99946.08;;;;-50
2020/06/27 16:31:14;;;;;;;5.15;2.67;;;;;;;22.01;66.55;99945.25;;;;-53
2020/06/27 16:34:14;;;;;;;4.92;2.95;;;;;;;22.02;66.48;99944.03;;;;-46
2020/06/27 16:37:14;;;;;;;4.62;2.79;;;;;;;22.02;66.51;99947.95;;;;-45
2020/06/27 16:40:14;;;;;;;5.63;2.90;;;;;;;22.03;66.55;99945.89;;;;-56
2020/06/27 16:43:14;;;;;;;5.53;2.97;;;;;;;22.03;66.46;99954.28;;;;-54